Time;durP1;ratioP1;P1;durP2;ratioP2;P2;SDS_P1;SDS_P2;PMS_P1;PMS_P2;Temp;Humidity;BMP_temperature;BMP_pressure;BME280_temperature;BME280_humidity;BME280_pressure;Samples;Min_cycle;Max_cycle;Signal;HPM_P1;HPM_P2
2022/07/21 00:01:13;;;;;;;17.55;14.07;;;;;16.90;94579.00;;;;7400338;19;20140;-75
2022/07/21 00:03:49;;;;;;;15.93;13.38;;;;;16.80;94570.00;;;;7401380;19;20154;-75
2022/07/21 00:06:18;;;;;;;15.23;13.18;;;;;16.80;94575.00;;;;7400776;19;20125;-75
2022/07/21 00:08:46;;;;;;;15.73;12.88;;;;;16.70;94566.00;;;;7404900;19;20184;-75
2022/07/21 00:11:22;;;;;;;16.52;13.57;;;;;16.60;94588.00;;;;7399590;19;20133;-75
2022/07/21 00:13:50;;;;;;;14.93;13.13;;;;;16.60;94591.00;;;;7400389;19;20600;-76
2022/07/21 00:16:17;;;;;;;15.32;12.63;;;;;16.50;94600.00;;;;7398935;19;20137;-76
2022/07/21 00:18:52;;;;;;;17.42;13.50;;;;;16.60;94599.00;;;;7398407;19;20139;-76
2022/07/21 00:21:20;;;;;;;14.65;12.23;;;;;16.70;94599.00;;;;7399602;19;20140;-76
2022/07/21 00:23:49;;;;;;;14.45;12.77;;;;;16.60;94603.00;;;;7402022;19;20156;-76
2022/07/21 00:26:25;;;;;;;14.43;12.93;;;;;16.70;94611.00;;;;7401634;19;20140;-76
2022/07/21 00:28:53;;;;;;;19.55;13.75;;;;;16.80;94609.00;;;;7399068;19;20133;-76
2022/07/21 00:31:22;;;;;;;17.00;13.82;;;;;16.80;94608.00;;;;7402429;19;20475;-76
2022/07/21 00:33:56;;;;;;;15.80;14.10;;;;;16.80;94601.00;;;;7398359;19;20613;-76
2022/07/21 00:36:24;;;;;;;16.25;13.52;;;;;16.90;94604.00;;;;7398025;19;20145;-75
2022/07/21 00:38:51;;;;;;;15.30;13.80;;;;;16.90;94607.00;;;;7401375;19;20122;-75
2022/07/21 00:41:27;;;;;;;17.27;13.85;;;;;17.00;94586.00;;;;7399285;19;20171;-76
2022/07/21 00:43:55;;;;;;;17.58;12.63;;;;;16.90;94592.00;;;;7397883;19;20137;-76
2022/07/21 00:46:24;;;;;;;15.43;12.85;;;;;16.90;94599.00;;;;7401364;19;20195;-76
2022/07/21 00:48:59;;;;;;;16.58;12.52;;;;;16.90;94601.00;;;;7398478;19;20729;-76
2022/07/21 00:51:26;;;;;;;15.35;13.38;;;;;17.00;94607.00;;;;7400029;19;20144;-76
2022/07/21 00:53:54;;;;;;;16.13;12.98;;;;;17.00;94606.00;;;;7397403;19;20575;-76
2022/07/21 00:56:35;;;;;;;13.52;12.23;;;;;17.00;94603.00;;;;7396034;19;20208;-76
2022/07/21 00:59:12;;;;;;;14.73;12.38;;;;;17.10;94601.00;;;;7398825;19;20139;-77
2022/07/21 01:01:48;;;;;;;17.45;12.90;;;;;17.00;94598.00;;;;7399250;19;20156;-84
2022/07/21 01:04:16;;;;;;;13.75;12.02;;;;;17.10;94601.00;;;;7396328;19;20141;-84
2022/07/21 01:06:43;;;;;;;15.57;12.07;;;;;17.10;94600.00;;;;7398743;19;20133;-84
2022/07/21 01:09:18;;;;;;;14.05;12.55;;;;;17.00;94602.00;;;;7395523;19;20144;-84
2022/07/21 01:11:46;;;;;;;14.50;11.85;;;;;17.10;94597.00;;;;7394576;19;20207;-83
2022/07/21 01:14:14;;;;;;;13.75;12.27;;;;;17.20;94595.00;;;;7396931;19;20603;-83
2022/07/21 01:16:49;;;;;;;11.43;10.23;;;;;17.30;94601.00;;;;7397060;19;20156;-85
2022/07/21 01:19:17;;;;;;;11.25;9.85;;;;;17.40;94595.00;;;;7393837;19;20599;-86
2022/07/21 01:21:47;;;;;;;10.23;9.10;;;;;17.40;94606.00;;;;7394828;19;20152;-84
2022/07/21 01:24:21;;;;;;;13.60;9.10;;;;;17.30;94606.00;;;;7396424;19;20300;-85
2022/07/21 01:26:52;;;;;;;11.23;9.90;;;;;17.30;94600.00;;;;7393042;19;20164;-85
2022/07/21 01:29:20;;;;;;;10.73;9.73;;;;;17.30;94604.00;;;;7395168;19;20153;-84
2022/07/21 01:31:55;;;;;;;10.75;9.75;;;;;17.20;94596.00;;;;7398644;19;20144;-85
2022/07/21 01:34:23;;;;;;;10.75;9.80;;;;;17.30;94603.00;;;;7396375;19;20145;-85
2022/07/21 01:36:50;;;;;;;12.45;9.73;;;;;17.30;94606.00;;;;7397241;19;20209;-84
2022/07/21 01:42:11;;;;;;;11.95;8.88;;;;;17.40;94599.00;;;;7395443;19;20145;-83
2022/07/21 01:44:45;;;;;;;9.40;8.45;;;;;17.40;94596.00;;;;7395302;19;20638;-85
2022/07/21 01:47:12;;;;;;;9.43;8.50;;;;;17.50;94594.00;;;;7396877;19;20125;-84
2022/07/21 01:49:40;;;;;;;9.55;8.60;;;;;17.40;94596.00;;;;7394596;19;20169;-87
2022/07/21 01:52:14;;;;;;;9.80;8.82;;;;;17.40;94597.00;;;;7393562;19;20175;-83
2022/07/21 01:54:41;;;;;;;10.75;9.52;;;;;17.30;94601.00;;;;7397525;19;20144;-85
2022/07/21 01:57:09;;;;;;;9.77;8.73;;;;;17.30;94610.00;;;;7391171;19;20204;-85
2022/07/21 01:59:43;;;;;;;9.77;8.77;;;;;17.30;94616.00;;;;7394295;19;20141;-84
2022/07/21 02:02:10;;;;;;;10.52;8.48;;;;;17.20;94614.00;;;;7396392;19;20599;-84
2022/07/21 02:04:44;;;;;;;9.25;8.38;;;;;17.20;94613.00;;;;7395437;19;20149;-84
2022/07/21 02:07:19;;;;;;;9.00;8.18;;;;;17.20;94612.00;;;;7392792;19;20120;-82
2022/07/21 02:09:49;;;;;;;9.70;8.73;;;;;17.20;94608.00;;;;7394871;19;20219;-85
2022/07/21 02:12:16;;;;;;;10.68;8.77;;;;;17.20;94614.00;;;;7393240;19;20665;-85
2022/07/21 02:14:51;;;;;;;9.95;9.05;;;;;17.20;94613.00;;;;7394799;19;20193;-83
2022/07/21 02:17:18;;;;;;;10.30;9.02;;;;;17.20;94617.00;;;;7393644;19;20148;-85
2022/07/21 02:19:46;;;;;;;9.98;8.40;;;;;17.10;94612.00;;;;7392652;19;20133;-85
2022/07/21 02:22:19;;;;;;;11.40;9.18;;;;;17.10;94611.00;;;;7394085;19;20148;-86
2022/07/21 02:24:47;;;;;;;9.98;9.07;;;;;17.10;94616.00;;;;7396349;19;20147;-84
2022/07/21 02:27:14;;;;;;;8.93;7.95;;;;;17.10;94612.00;;;;7391880;19;20177;-85
2022/07/21 02:29:49;;;;;;;9.73;8.82;;;;;17.10;94615.00;;;;7393726;19;20614;-84
2022/07/21 02:32:16;;;;;;;10.95;8.70;;;;;17.10;94608.00;;;;7394244;19;20157;-83
2022/07/21 02:34:44;;;;;;;9.65;8.77;;;;;17.00;94614.00;;;;7394909;19;20137;-85
2022/07/21 02:37:17;;;;;;;10.40;8.65;;;;;16.90;94613.00;;;;7393725;19;20149;-84
2022/07/21 02:39:45;;;;;;;9.75;8.50;;;;;16.90;94622.00;;;;7392636;19;20139;-85
2022/07/21 02:42:15;;;;;;;11.80;10.45;;;;;16.90;94618.00;;;;7393548;19;20930;-85
2022/07/21 02:44:49;;;;;;;10.25;9.20;;;;;16.90;94622.00;;;;7394905;19;20153;-83
2022/07/21 02:47:17;;;;;;;13.23;9.90;;;;;16.90;94621.00;;;;7392374;19;20144;-85
2022/07/21 02:49:45;;;;;;;11.25;10.07;;;;;16.90;94622.00;;;;7392880;19;20148;-86
2022/07/21 02:52:19;;;;;;;11.02;9.93;;;;;16.90;94633.00;;;;7392583;19;20136;-85
2022/07/21 02:54:48;;;;;;;10.02;9.13;;;;;16.90;94633.00;;;;7396690;19;20477;-85
2022/07/21 02:57:15;;;;;;;10.77;9.68;;;;;16.80;94632.00;;;;7388845;19;20574;-85
2022/07/21 02:59:56;;;;;;;11.70;9.50;;;;;16.70;94641.00;;;;7393632;19;20152;-85
2022/07/21 03:02:24;;;;;;;11.18;10.15;;;;;16.70;94642.00;;;;7393639;19;20622;-86
2022/07/21 03:04:58;;;;;;;11.32;10.23;;;;;16.60;94640.00;;;;7395041;19;20129;-85
2022/07/21 03:07:25;;;;;;;11.10;9.98;;;;;16.60;94633.00;;;;7391588;19;20134;-84
2022/07/21 03:09:53;;;;;;;11.65;10.63;;;;;16.60;94642.00;;;;7394129;19;20121;-86
2022/07/21 03:12:27;;;;;;;11.30;10.15;;;;;16.50;94637.00;;;;7391997;19;20176;-86
2022/07/21 03:14:54;;;;;;;12.75;11.35;;;;;16.40;94633.00;;;;7394522;19;20152;-84
2022/07/21 03:17:22;;;;;;;13.73;11.73;;;;;16.60;94623.00;;;;7390825;19;20148;-86
2022/07/21 03:20:00;;;;;;;14.30;11.60;;;;;16.60;94632.00;;;;7389018;19;20140;-84
2022/07/21 03:22:27;;;;;;;13.88;11.70;;;;;16.60;94633.00;;;;7394129;19;20125;-84
2022/07/21 03:24:55;;;;;;;12.45;10.70;;;;;16.40;94638.00;;;;7394595;19;20143;-85
2022/07/21 03:27:29;;;;;;;13.90;12.35;;;;;16.50;94640.00;;;;7389651;19;20157;-83
2022/07/21 03:29:56;;;;;;;14.07;12.07;;;;;16.50;94640.00;;;;7395850;19;20244;-85
2022/07/21 03:32:24;;;;;;;13.68;11.48;;;;;16.40;94635.00;;;;7393612;19;20488;-86
2022/07/21 03:34:58;;;;;;;13.65;12.25;;;;;16.40;94639.00;;;;7393142;19;20155;-86
2022/07/21 03:37:26;;;;;;;13.60;11.10;;;;;16.20;94632.00;;;;7391356;19;20125;-86
2022/07/21 03:39:53;;;;;;;15.38;11.30;;;;;16.30;94640.00;;;;7390705;19;20158;-85
2022/07/21 03:42:28;;;;;;;13.18;11.15;;;;;16.20;94634.00;;;;7391593;19;20150;-85
2022/07/21 03:44:55;;;;;;;13.88;11.73;;;;;16.20;94639.00;;;;7395206;19;20268;-86
2022/07/21 03:47:23;;;;;;;13.73;12.02;;;;;16.10;94637.00;;;;7393411;19;20554;-86
2022/07/21 03:49:57;;;;;;;16.60;13.20;;;;;16.40;94630.00;;;;7393795;19;20162;-81
2022/07/21 03:52:24;;;;;;;13.50;11.98;;;;;16.30;94626.00;;;;7389679;19;20137;-86
2022/07/21 03:55:07;;;;;;;17.55;12.68;;;;;16.20;94629.00;;;;7392092;19;20192;-84
2022/07/21 03:57:52;;;;;;;15.68;12.45;;;;;16.20;94641.00;;;;7386532;19;20528;-84
2022/07/21 04:00:32;;;;;;;14.57;12.98;;;;;16.10;94647.00;;;;7391208;19;20148;-86
2022/07/21 04:03:07;;;;;;;13.80;12.48;;;;;16.20;94655.00;;;;7396322;19;20160;-85
2022/07/21 04:05:36;;;;;;;15.73;12.60;;;;;16.30;94659.00;;;;7397069;19;20121;-85
2022/07/21 04:08:04;;;;;;;14.38;12.88;;;;;16.20;94655.00;;;;7397802;19;20152;-84
2022/07/21 04:10:40;;;;;;;14.60;13.10;;;;;16.30;94655.00;;;;7398501;19;20590;-85
2022/07/21 04:13:10;;;;;;;14.90;13.45;;;;;16.20;94653.00;;;;7396920;19;20591;-84
2022/07/21 04:15:38;;;;;;;14.35;13.00;;;;;16.30;94654.00;;;;7402913;19;20133;-84
2022/07/21 04:18:13;;;;;;;14.32;12.93;;;;;16.30;94657.00;;;;7396290;19;20132;-86
2022/07/21 04:20:40;;;;;;;15.20;13.60;;;;;16.40;94656.00;;;;7396839;19;20133;-85
2022/07/21 04:23:08;;;;;;;13.63;12.20;;;;;16.40;94653.00;;;;7398334;19;20148;-83
2022/07/21 04:25:42;;;;;;;14.55;13.07;;;;;16.50;94658.00;;;;7397644;19;20606;-85
2022/07/21 04:28:11;;;;;;;14.48;12.52;;;;;16.50;94667.00;;;;7397180;19;20156;-86
2022/07/21 04:30:39;;;;;;;13.10;11.85;;;;;16.60;94667.00;;;;7399036;19;20141;-85
2022/07/21 04:33:13;;;;;;;14.15;12.68;;;;;16.50;94673.00;;;;7400942;19;20148;-85
2022/07/21 04:35:40;;;;;;;14.00;11.90;;;;;16.50;94670.00;;;;7397025;19;20519;-84
2022/07/21 04:38:09;;;;;;;14.25;12.95;;;;;16.60;94654.00;;;;7397216;19;20156;-84
2022/07/21 04:40:44;;;;;;;13.13;11.48;;;;;16.60;94651.00;;;;7397808;19;20167;-82
2022/07/21 04:43:11;;;;;;;12.35;11.13;;;;;16.50;94658.00;;;;7396292;19;20185;-86
2022/07/21 04:45:39;;;;;;;14.10;11.68;;;;;16.50;94666.00;;;;7398995;19;20143;-84
2022/07/21 04:48:14;;;;;;;11.98;10.77;;;;;16.50;94662.00;;;;7396465;19;20161;-84
2022/07/21 04:50:41;;;;;;;14.45;11.63;;;;;16.70;94675.00;;;;7397609;19;20144;-84
2022/07/21 04:53:09;;;;;;;14.73;11.98;;;;;16.80;94677.00;;;;7395642;19;20614;-86
2022/07/21 04:55:57;;;;;;;12.73;11.43;;;;;16.90;94673.00;;;;7394037;19;20182;-85
2022/07/21 04:58:32;;;;;;;13.50;11.77;;;;;17.00;94678.00;;;;7395581;19;20137;-86
2022/07/21 05:01:06;;;;;;;11.70;10.57;;;;;17.20;94676.00;;;;7393614;19;20137;-84
2022/07/21 05:03:33;;;;;;;12.10;10.73;;;;;17.30;94677.00;;;;7395819;19;20503;-84
2022/07/21 05:06:01;;;;;;;12.23;11.02;;;;;17.40;94664.00;;;;7393372;19;20157;-82
2022/07/21 05:08:35;;;;;;;12.77;10.68;;;;;17.50;94671.00;;;;7395146;19;20147;-87
2022/07/21 05:11:04;;;;;;;11.27;10.20;;;;;17.50;94677.00;;;;7393154;19;20180;-84
2022/07/21 05:13:31;;;;;;;12.70;10.55;;;;;17.50;94671.00;;;;7393722;19;20157;-84
2022/07/21 05:16:06;;;;;;;11.73;10.63;;;;;17.40;94674.00;;;;7389925;19;20925;-85
2022/07/21 05:18:33;;;;;;;10.52;9.20;;;;;17.50;94678.00;;;;7394664;19;20148;-86
2022/07/21 05:21:01;;;;;;;10.50;9.50;;;;;17.50;94675.00;;;;7387643;19;20499;-82
2022/07/21 05:23:38;;;;;;;11.70;10.50;;;;;17.80;94674.00;;;;7390843;19;20591;-82
2022/07/21 05:26:05;;;;;;;11.48;9.88;;;;;18.00;94671.00;;;;7391744;19;20224;-81
2022/07/21 05:28:33;;;;;;;10.88;9.77;;;;;18.10;94671.00;;;;7394756;19;20155;-84
2022/07/21 05:31:08;;;;;;;12.10;10.20;;;;;18.20;94678.00;;;;7393506;19;20133;-83
2022/07/21 05:33:36;;;;;;;12.02;10.15;;;;;18.50;94676.00;;;;7394099;19;20155;-85
2022/07/21 05:36:04;;;;;;;11.60;9.07;;;;;18.60;94673.00;;;;7393454;19;20654;-82
2022/07/21 05:38:39;;;;;;;10.52;9.00;;;;;18.70;94674.00;;;;7395413;19;20144;-81
2022/07/21 05:41:22;;;;;;;9.20;8.40;;;;;18.90;94675.00;;;;7391784;19;20145;-82
2022/07/21 05:44:03;;;;;;;10.00;9.00;;;;;18.80;94674.00;;;;7393634;19;20663;-80
2022/07/21 05:46:31;;;;;;;9.45;8.50;;;;;18.80;94674.00;;;;7395933;19;20129;-82
2022/07/21 05:49:05;;;;;;;12.70;8.75;;;;;18.90;94675.00;;;;7392062;19;20591;-82
2022/07/21 05:51:32;;;;;;;10.60;8.70;;;;;18.90;94682.00;;;;7392663;19;20648;-83
2022/07/21 05:54:00;;;;;;;7.97;7.28;;;;;19.10;94684.00;;;;7392684;19;20608;-80
2022/07/21 05:56:40;;;;;;;8.93;7.72;;;;;19.10;94689.00;;;;7392912;19;20200;-80
2022/07/21 05:59:08;;;;;;;10.40;7.55;;;;;19.10;94692.00;;;;7392502;19;20152;-83
2022/07/21 06:01:42;;;;;;;9.38;7.63;;;;;18.80;94697.00;;;;7390507;19;20151;-81
2022/07/21 06:04:09;;;;;;;7.43;6.72;;;;;18.50;94705.00;;;;7395114;19;20204;-80
2022/07/21 06:06:37;;;;;;;11.18;7.90;;;;;18.40;94700.00;;;;7394506;19;20140;-82
2022/07/21 06:09:11;;;;;;;12.75;7.93;;;;;18.60;94699.00;;;;7391027;19;20591;-81
2022/07/21 06:11:38;;;;;;;8.27;7.10;;;;;18.70;94700.00;;;;7392732;19;20164;-80
2022/07/21 06:14:06;;;;;;;9.88;7.95;;;;;18.70;94717.00;;;;7393258;19;20571;-81
2022/07/21 06:16:40;;;;;;;8.77;7.85;;;;;18.60;94705.00;;;;7395816;19;20136;-81
2022/07/21 06:19:07;;;;;;;8.05;7.25;;;;;18.60;94698.00;;;;7391949;19;20603;-83
2022/07/21 06:21:35;;;;;;;8.73;7.60;;;;;18.70;94706.00;;;;7390310;19;20225;-80
2022/07/21 06:24:13;;;;;;;7.75;7.03;;;;;18.60;94702.00;;;;7391837;19;20144;-82
2022/07/21 06:26:41;;;;;;;7.90;7.10;;;;;18.90;94693.00;;;;7392621;19;20632;-79
2022/07/21 06:29:09;;;;;;;8.40;7.00;;;;;19.00;94694.00;;;;7393021;19;20133;-79
2022/07/21 06:31:43;;;;;;;9.13;7.03;;;;;19.30;94693.00;;;;7390407;19;20591;-81
2022/07/21 06:34:10;;;;;;;8.80;6.75;;;;;19.40;94691.00;;;;7393137;19;20144;-82
2022/07/21 06:36:38;;;;;;;8.55;6.95;;;;;19.70;94701.00;;;;7394102;19;20634;-81
2022/07/21 06:39:12;;;;;;;8.60;7.13;;;;;19.90;94703.00;;;;7390830;19;20144;-81
2022/07/21 06:41:40;;;;;;;7.93;6.82;;;;;19.90;94696.00;;;;7392141;19;20133;-81
2022/07/21 06:44:08;;;;;;;7.13;6.43;;;;;19.50;94701.00;;;;7391689;19;20164;-81
2022/07/21 06:46:42;;;;;;;10.27;6.65;;;;;19.50;94700.00;;;;7392775;19;20151;-81
2022/07/21 06:49:09;;;;;;;8.10;6.47;;;;;19.60;94711.00;;;;7391784;19;20141;-82
2022/07/21 06:51:37;;;;;;;6.82;5.88;;;;;19.70;94702.00;;;;7390431;19;20150;-81
2022/07/21 06:54:11;;;;;;;9.38;7.00;;;;;20.20;94706.00;;;;7393565;19;20129;-80
2022/07/21 06:56:45;;;;;;;7.05;6.25;;;;;19.90;94712.00;;;;7392619;19;20187;-83
2022/07/21 06:59:26;;;;;;;7.53;6.15;;;;;20.00;94707.00;;;;7390927;19;20141;-82
2022/07/21 07:01:55;;;;;;;8.82;6.07;;;;;20.00;94716.00;;;;7388914;19;20157;-82
2022/07/21 07:04:30;;;;;;;6.60;5.97;;;;;19.90;94699.00;;;;7392805;19;20144;-81
2022/07/21 07:06:58;;;;;;;7.43;6.10;;;;;20.10;94703.00;;;;7394648;19;20450;-83
2022/07/21 07:09:26;;;;;;;7.88;5.75;;;;;20.20;94700.00;;;;7390835;19;20147;-81
2022/07/21 07:12:08;;;;;;;7.47;6.40;;;;;20.40;94699.00;;;;7390645;19;20191;-81
2022/07/21 07:14:55;;;;;;;6.00;5.40;;;;;20.80;94712.00;;;;7391364;19;20164;-81
2022/07/21 07:17:30;;;;;;;8.93;5.45;;;;;20.50;94705.00;;;;7392969;19;20139;-80
2022/07/21 07:19:58;;;;;;;4.93;4.43;;;;;20.40;94715.00;;;;7392489;19;20132;-79
2022/07/21 07:22:26;;;;;;;7.07;5.30;;;;;20.30;94720.00;;;;7389220;19;20168;-80
2022/07/21 07:25:00;;;;;;;4.80;4.40;;;;;20.20;94708.00;;;;7389744;19;20891;-85
2022/07/21 07:27:28;;;;;;;8.68;4.15;;;;;20.40;94723.00;;;;7388256;19;20132;-83
2022/07/21 07:30:01;;;;;;;4.30;3.85;;;;;20.20;94720.00;;;;7390869;19;20148;-83
2022/07/21 07:32:36;;;;;;;5.18;4.70;;;;;20.00;94720.00;;;;7391597;19;20137;-81
2022/07/21 07:35:04;;;;;;;4.80;4.25;;;;;20.40;94735.00;;;;7387960;19;20412;-82
2022/07/21 07:37:35;;;;;;;6.22;4.22;;;;;20.60;94724.00;;;;7394902;19;20132;-84
2022/07/21 07:40:15;;;;;;;5.75;4.45;;;;;20.90;94726.00;;;;7399452;19;20587;-82
2022/07/21 07:42:43;;;;;;;5.55;4.15;;;;;20.90;94717.00;;;;7395523;19;20129;-82
2022/07/21 07:45:17;;;;;;;5.45;4.03;;;;;21.50;94719.00;;;;7396880;19;20152;-82
2022/07/21 07:47:45;;;;;;;6.00;4.50;;;;;21.90;94729.00;;;;7399643;19;20129;-82
2022/07/21 07:50:14;;;;;;;8.90;4.10;;;;;21.40;94717.00;;;;7396905;19;20151;-82
2022/07/21 07:52:48;;;;;;;5.95;4.32;;;;;21.50;94725.00;;;;7398621;19;20482;-81
2022/07/21 07:55:15;;;;;;;6.00;4.30;;;;;21.50;94730.00;;;;7396777;19;20140;-82
2022/07/21 07:57:43;;;;;;;6.15;4.22;;;;;21.10;94730.00;;;;7393892;19;20204;-82
2022/07/21 08:00:19;;;;;;;8.68;3.80;;;;;20.70;94719.00;;;;7398585;19;20153;-82
2022/07/21 08:03:07;;;;;;;3.90;3.53;;;;;21.00;94715.00;;;;7397611;19;20205;-80
2022/07/21 08:05:41;;;;;;;4.18;3.70;;;;;21.50;94704.00;;;;7398765;19;20133;-80
2022/07/21 08:08:08;;;;;;;3.70;3.40;;;;;21.80;94701.00;;;;7397563;19;20141;-81
2022/07/21 08:10:36;;;;;;;4.68;3.60;;;;;22.00;94723.00;;;;7398712;19;20495;-82
2022/07/21 08:13:13;;;;;;;6.00;3.90;;;;;22.00;94705.00;;;;7396551;19;20124;-83
2022/07/21 08:15:42;;;;;;;3.88;3.47;;;;;22.40;94705.00;;;;7396770;19;20785;-81
2022/07/21 08:18:10;;;;;;;4.18;3.47;;;;;22.80;94695.00;;;;7397661;19;20129;-80
2022/07/21 08:20:46;;;;;;;4.40;3.60;;;;;22.70;94705.00;;;;7397011;19;20140;-82
2022/07/21 08:23:14;;;;;;;4.47;3.92;;;;;22.80;94703.00;;;;7394511;19;20145;-80
2022/07/21 08:25:43;;;;;;;5.85;3.45;;;;;22.20;94722.00;;;;7398479;19;20477;-81
2022/07/21 08:28:17;;;;;;;3.78;3.42;;;;;22.20;94705.00;;;;7395206;19;20145;-79
2022/07/21 08:30:44;;;;;;;3.55;3.10;;;;;22.60;94704.00;;;;7399111;19;20151;-79
2022/07/21 08:33:12;;;;;;;3.72;3.42;;;;;22.40;94696.00;;;;7395570;19;20141;-80
2022/07/21 08:35:46;;;;;;;5.22;3.80;;;;;22.70;94697.00;;;;7395925;19;20135;-78
2022/07/21 08:38:13;;;;;;;4.45;3.58;;;;;22.90;94703.00;;;;7396546;19;20144;-79
2022/07/21 08:40:44;;;;;;;3.78;3.20;;;;;23.50;94721.00;;;;7397769;19;20141;-79
2022/07/21 08:43:27;;;;;;;6.35;3.47;;;;;23.00;94711.00;;;;7395864;19;20132;-79
2022/07/21 08:45:54;;;;;;;3.40;3.00;;;;;22.90;94713.00;;;;7397086;19;20658;-80
2022/07/21 08:48:30;;;;;;;3.95;3.35;;;;;23.50;94716.00;;;;7398405;19;20230;-79
2022/07/21 08:50:58;;;;;;;9.52;3.90;;;;;23.50;94700.00;;;;7399497;19;20220;-79
2022/07/21 08:53:28;;;;;;;7.93;4.00;;;;;23.50;94726.00;;;;7394670;19;20128;-78
2022/07/21 08:56:08;;;;;;;4.25;3.85;;;;;22.40;94741.00;;;;7396586;19;20184;-78
2022/07/21 08:58:43;;;;;;;4.32;3.90;;;;;21.70;94729.00;;;;7395498;19;20150;-78
2022/07/21 09:01:18;;;;;;;4.82;4.28;;;;;21.70;94734.00;;;;7393186;19;20141;-78
2022/07/21 09:03:47;;;;;;;4.13;3.60;;;;;22.30;94724.00;;;;7398015;19;20449;-78
2022/07/21 09:06:16;;;;;;;3.22;2.92;;;;;23.20;94719.00;;;;7396695;19;20131;-79
2022/07/21 09:08:54;;;;;;;3.85;3.38;;;;;23.50;94711.00;;;;7399146;19;20242;-78
2022/07/21 09:11:25;;;;;;;6.60;3.67;;;;;23.70;94705.00;;;;7394135;19;20172;-80
2022/07/21 09:14:18;;;;;;;4.70;3.28;;;;;24.00;94712.00;;;;7396588;19;20180;-77
2022/07/21 09:16:57;;;;;;;3.70;3.30;;;;;24.20;94707.00;;;;7397276;19;20128;-79
2022/07/21 09:19:44;;;;;;;3.60;3.30;;;;;24.50;94726.00;;;;7395374;19;20125;-78
2022/07/21 09:22:18;;;;;;;4.93;3.60;;;;;24.10;94721.00;;;;7393046;19;20153;-78
2022/07/21 09:24:52;;;;;;;5.40;3.72;;;;;24.00;94743.00;;;;7397354;19;20155;-79
2022/07/21 09:27:24;;;;;;;4.45;3.40;;;;;23.30;94728.00;;;;7393269;19;20153;-78
2022/07/21 09:29:58;;;;;;;4.20;3.33;;;;;23.40;94760.00;;;;7392765;19;20622;-79
2022/07/21 09:32:36;;;;;;;4.60;3.58;;;;;23.60;94721.00;;;;7394749;19;20230;-77
2022/07/21 09:35:14;;;;;;;6.40;3.50;;;;;24.30;94720.00;;;;7395032;19;20139;-78
2022/07/21 09:37:49;;;;;;;4.45;3.65;;;;;24.60;94732.00;;;;7394378;19;20600;-78
2022/07/21 09:40:17;;;;;;;4.05;3.47;;;;;23.60;94734.00;;;;7393784;19;20178;-79
2022/07/21 09:42:51;;;;;;;4.03;3.35;;;;;23.10;94743.00;;;;7394006;19;20148;-78
2022/07/21 09:45:26;;;;;;;5.15;3.90;;;;;22.80;94744.00;;;;7393161;19;20520;-80
2022/07/21 09:47:53;;;;;;;5.75;3.88;;;;;22.80;94740.00;;;;7393126;19;20634;-78
2022/07/21 09:50:21;;;;;;;5.00;3.70;;;;;22.90;94724.00;;;;7395255;19;20136;-79
2022/07/21 09:52:57;;;;;;;3.75;3.45;;;;;23.70;94719.00;;;;7394690;19;20148;-79
2022/07/21 09:55:26;;;;;;;3.63;3.40;;;;;24.00;94709.00;;;;7392625;19;20623;-79
2022/07/21 09:57:58;;;;;;;6.72;3.85;;;;;24.40;94715.00;;;;7393395;19;20157;-79
2022/07/21 10:00:39;;;;;;;4.53;3.78;;;;;24.60;94706.00;;;;7390386;19;20595;-77
2022/07/21 10:03:08;;;;;;;4.55;3.63;;;;;24.20;94710.00;;;;7390444;19;20192;-77
2022/07/21 10:05:42;;;;;;;4.32;3.90;;;;;24.40;94709.00;;;;7394006;19;20172;-80
2022/07/21 10:08:13;;;;;;;5.50;4.03;;;;;25.20;94706.00;;;;7394973;19;20125;-79
2022/07/21 10:10:41;;;;;;;4.07;3.67;;;;;25.40;94717.00;;;;7395993;19;20149;-80
2022/07/21 10:13:37;;;;;;;4.95;3.42;;;;;25.80;94708.00;;;;7391115;19;20154;-79
2022/07/21 10:16:05;;;;;;;5.68;4.05;;;;;26.00;94712.00;;;;7393076;19;20145;-78
2022/07/21 10:18:52;;;;;;;7.80;4.05;;;;;25.50;94721.00;;;;7395606;19;20136;-79
2022/07/21 10:21:29;;;;;;;4.28;3.88;;;;;24.80;94723.00;;;;7390648;19;20158;-78
2022/07/21 10:24:09;;;;;;;4.25;3.42;;;;;24.60;94712.00;;;;7392317;19;20129;-77
2022/07/21 10:26:37;;;;;;;4.10;3.63;;;;;24.10;94722.00;;;;7394059;19;20607;-78
2022/07/21 10:29:04;;;;;;;6.82;4.00;;;;;23.80;94709.00;;;;7391295;19;20584;-77
2022/07/21 10:31:43;;;;;;;3.95;3.22;;;;;24.00;94733.00;;;;7392676;19;20136;-77
2022/07/21 10:34:11;;;;;;;4.00;3.47;;;;;24.40;94707.00;;;;7392968;19;20133;-77
2022/07/21 10:36:40;;;;;;;5.68;4.05;;;;;25.40;94699.00;;;;7393305;19;20145;-79
2022/07/21 10:39:23;;;;;;;5.18;3.72;;;;;26.00;94675.00;;;;7390406;19;20148;-80
2022/07/21 10:41:56;;;;;;;4.60;3.60;;;;;26.80;94678.00;;;;7391497;19;20155;-78
2022/07/21 10:44:30;;;;;;;4.68;3.47;;;;;27.10;94681.00;;;;7393165;19;20171;-78
2022/07/21 10:47:05;;;;;;;5.20;3.80;;;;;27.30;94709.00;;;;7394216;19;20145;-79
2022/07/21 10:49:46;;;;;;;5.38;4.20;;;;;26.60;94715.00;;;;7391050;19;20595;-79
2022/07/21 10:52:39;;;;;;;5.15;4.13;;;;;25.50;94708.00;;;;7391195;19;20136;-77
2022/07/21 10:55:28;;;;;;;4.40;4.00;;;;;25.50;94719.00;;;;7389389;19;20148;-77
2022/07/21 10:58:31;;;;;;;4.10;3.72;;;;;24.90;94713.00;;;;7389674;19;20149;-77
2022/07/21 11:01:24;;;;;;;5.18;4.38;;;;;24.90;94719.00;;;;7387184;19;20148;-78
2022/07/21 11:04:11;;;;;;;5.03;3.80;;;;;25.40;94715.00;;;;7391441;19;20144;-79
2022/07/21 11:06:46;;;;;;;5.55;4.15;;;;;25.20;94723.00;;;;7393606;19;20173;-78
2022/07/21 11:09:16;;;;;;;4.70;4.30;;;;;24.40;94706.00;;;;7389516;19;20160;-79
2022/07/21 11:12:00;;;;;;;5.97;4.55;;;;;25.50;94706.00;;;;7386400;19;20647;-79
2022/07/21 11:14:42;;;;;;;4.72;4.10;;;;;26.10;94700.00;;;;7393106;19;20913;-79
2022/07/21 11:17:35;;;;;;;5.22;4.72;;;;;26.30;94702.00;;;;7390624;19;20148;-78
2022/07/21 11:20:14;;;;;;;5.10;4.35;;;;;25.60;94716.00;;;;7388714;19;20148;-77
2022/07/21 11:22:52;;;;;;;5.00;4.47;;;;;24.90;94704.00;;;;7389015;19;20611;-78
2022/07/21 11:25:28;;;;;;;6.18;4.68;;;;;25.00;94689.00;;;;7391566;19;20147;-79
2022/07/21 11:27:56;;;;;;;6.03;4.65;;;;;26.60;94690.00;;;;7391895;19;20510;-79
2022/07/21 11:30:23;;;;;;;6.72;4.70;;;;;27.40;94680.00;;;;7391013;19;20607;-80
2022/07/21 11:32:57;;;;;;;4.90;3.97;;;;;27.90;94678.00;;;;7391027;19;20140;-78
2022/07/21 11:35:26;;;;;;;5.35;4.18;;;;;28.40;94677.00;;;;7389374;19;20161;-77
2022/07/21 11:37:54;;;;;;;6.07;4.85;;;;;28.10;94676.00;;;;7391910;19;20614;-77
2022/07/21 11:40:29;;;;;;;6.72;4.70;;;;;27.30;94674.00;;;;7392837;19;20137;-80
2022/07/21 11:42:56;;;;;;;4.47;4.07;;;;;27.40;94672.00;;;;7390925;19;20117;-79
2022/07/21 11:45:26;;;;;;;6.47;4.75;;;;;27.80;94669.00;;;;7391203;19;20149;-79
2022/07/21 11:48:00;;;;;;;11.23;4.70;;;;;27.60;94688.00;;;;7390296;19;20148;-78
2022/07/21 11:50:28;;;;;;;5.90;4.90;;;;;27.60;94683.00;;;;7390917;19;20563;-78
2022/07/21 11:52:57;;;;;;;5.68;5.10;;;;;26.70;94706.00;;;;7393511;19;20163;-80
2022/07/21 11:55:34;;;;;;;5.53;4.90;;;;;26.20;94681.00;;;;7389151;19;20602;-78
2022/07/21 11:58:08;;;;;;;7.72;5.18;;;;;26.70;94678.00;;;;7389503;19;20674;-80
2022/07/21 12:00:42;;;;;;;4.70;4.30;;;;;27.60;94669.00;;;;7390835;19;20585;-78
2022/07/21 12:03:10;;;;;;;4.90;4.50;;;;;28.10;94683.00;;;;7385195;19;20174;-80
2022/07/21 12:05:39;;;;;;;5.22;4.60;;;;;28.00;94671.00;;;;7388323;19;20156;-76
2022/07/21 12:08:13;;;;;;;5.35;4.15;;;;;26.50;94690.00;;;;7392243;19;20125;-77
2022/07/21 12:10:40;;;;;;;4.20;3.80;;;;;25.30;94680.00;;;;7392803;19;20141;-76
2022/07/21 12:13:08;;;;;;;7.93;5.13;;;;;24.50;94698.00;;;;7392263;19;20144;-77
2022/07/21 12:15:42;;;;;;;4.80;4.30;;;;;24.20;94699.00;;;;7390707;19;20594;-78
2022/07/21 12:18:20;;;;;;;5.00;4.50;;;;;24.40;94702.00;;;;7391388;19;20125;-79
2022/07/21 12:21:06;;;;;;;5.10;4.53;;;;;24.50;94704.00;;;;7390356;19;20136;-79
2022/07/21 12:23:34;;;;;;;6.13;4.88;;;;;25.70;94675.00;;;;7389644;19;20147;-79
2022/07/21 12:26:21;;;;;;;8.25;4.60;;;;;25.70;94695.00;;;;7395958;19;20933;-78
2022/07/21 12:28:53;;;;;;;5.15;4.60;;;;;25.40;94680.00;;;;7399336;19;20174;-76
2022/07/21 12:31:27;;;;;;;6.85;4.93;;;;;26.70;94670.00;;;;7396284;19;20143;-77
2022/07/21 12:33:56;;;;;;;4.80;4.35;;;;;27.10;94689.00;;;;7392975;19;20172;-78
2022/07/21 12:36:45;;;;;;;4.85;4.30;;;;;27.00;94670.00;;;;7393236;19;20160;-77
2022/07/21 12:42:32;;;;;;;6.43;4.55;;;;;26.90;94679.00;;;;7393073;19;20232;-77